Time;durP1;ratioP1;P1;durP2;ratioP2;P2;SDS_P1;SDS_P2;PMS_P1;PMS_P2;Temp;Humidity;BMP_temperature;BMP_pressure;BME280_temperature;BME280_humidity;BME280_pressure;Samples;Min_cycle;Max_cycle;Signal;HPM_P1;HPM_P2
2022/05/05 00:01:01;;;;;;;2.15;1.35;;;14.50;99.90;;;;;;5053289;28;20264;-70
2022/05/05 00:03:49;;;;;;;0.40;0.40;;;14.40;99.90;;;;;;5055119;28;20262;-70
2022/05/05 00:06:38;;;;;;;0.40;0.40;;;14.40;99.90;;;;;;5055884;28;20202;-70
2022/05/05 00:09:26;;;;;;;0.63;0.63;;;14.30;99.90;;;;;;5056727;28;20198;-71
2022/05/05 00:15:20;;;;;;;0.40;0.40;;;14.20;99.90;;;;;;5052939;28;20197;-70
2022/05/05 00:18:10;;;;;;;0.53;0.53;;;14.20;99.90;;;;;;5055123;28;20212;-69
2022/05/05 00:20:58;;;;;;;0.90;0.70;;;14.20;99.90;;;;;;5055739;28;20249;-70
2022/05/05 00:23:46;;;;;;;0.40;0.40;;;14.20;99.90;;;;;;5054930;28;20767;-70
2022/05/05 00:26:34;;;;;;;2.27;2.17;;;14.10;99.90;;;;;;5052390;28;20460;-69
2022/05/05 00:29:22;;;;;;;0.40;0.40;;;14.00;99.90;;;;;;5054181;28;20248;-69
2022/05/05 00:32:11;;;;;;;0.40;0.40;;;13.90;99.90;;;;;;5054552;28;20228;-70
2022/05/05 00:35:00;;;;;;;2.57;2.37;;;13.90;99.90;;;;;;5053363;28;20202;-70
2022/05/05 00:37:49;;;;;;;0.97;0.97;;;13.80;99.90;;;;;;5053851;28;20432;-69
2022/05/05 00:40:36;;;;;;;0.70;0.70;;;13.70;99.90;;;;;;5051902;28;20222;-70
2022/05/05 00:43:25;;;;;;;0.70;0.70;;;13.50;99.90;;;;;;5053830;28;20437;-70
2022/05/05 00:46:13;;;;;;;3.47;1.47;;;13.40;99.90;;;;;;5054132;28;20421;-70
2022/05/05 00:49:02;;;;;;;0.50;0.50;;;13.40;99.90;;;;;;5054629;28;20425;-70
2022/05/05 00:51:51;;;;;;;0.40;0.40;;;13.10;99.90;;;;;;5054487;28;20452;-68
2022/05/05 00:54:39;;;;;;;0.40;0.40;;;13.00;99.90;;;;;;5055028;28;20236;-70
2022/05/05 00:57:28;;;;;;;0.50;0.50;;;13.00;99.90;;;;;;5054521;28;20452;-69
2022/05/05 01:00:16;;;;;;;0.40;0.40;;;13.00;99.90;;;;;;5054222;28;20521;-69
2022/05/05 01:03:08;;;;;;;0.50;0.50;;;12.90;99.90;;;;;;5053128;28;20527;-68
2022/05/05 01:05:57;;;;;;;0.40;0.40;;;12.90;99.90;;;;;;5049905;28;20441;-69
2022/05/05 01:08:47;;;;;;;1.07;0.77;;;12.90;99.90;;;;;;5048984;28;20421;-69
2022/05/05 01:11:35;;;;;;;1.43;0.73;;;12.80;99.90;;;;;;5051523;28;20521;-69
2022/05/05 01:14:23;;;;;;;0.40;0.40;;;13.00;99.90;;;;;;5048889;28;20441;-69
2022/05/05 01:17:12;;;;;;;0.80;0.60;;;13.00;99.90;;;;;;5047189;28;20460;-69
2022/05/05 01:20:10;;;;;;;0.40;0.40;;;13.10;99.90;;;;;;5052377;28;20471;-69
2022/05/05 01:22:59;;;;;;;0.57;0.57;;;13.10;99.90;;;;;;5053481;28;20433;-70
2022/05/05 01:28:54;;;;;;;0.40;0.40;;;13.20;99.90;;;;;;5052172;28;20539;-69
2022/05/05 01:31:43;;;;;;;0.40;0.40;;;13.20;99.90;;;;;;5052956;28;20503;-69
2022/05/05 01:34:31;;;;;;;0.40;0.40;;;13.10;99.90;;;;;;5053290;28;20482;-68
2022/05/05 01:37:19;;;;;;;0.40;0.40;;;13.10;99.90;;;;;;5053101;28;20449;-69
2022/05/05 01:40:10;;;;;;;0.40;0.40;;;13.30;99.90;;;;;;5057697;28;20518;-69
2022/05/05 01:42:58;;;;;;;0.40;0.40;;;13.10;99.90;;;;;;5055638;28;20869;-69
2022/05/05 01:45:47;;;;;;;0.97;0.87;;;13.00;99.90;;;;;;5057985;28;20417;-70
2022/05/05 01:48:35;;;;;;;0.40;0.40;;;13.10;99.90;;;;;;5055885;28;20425;-68
2022/05/05 01:51:23;;;;;;;0.60;0.60;;;13.00;99.90;;;;;;5057162;28;20448;-70
2022/05/05 01:54:11;;;;;;;0.40;0.40;;;13.10;99.90;;;;;;5056631;28;20459;-69
2022/05/05 01:57:07;;;;;;;0.40;0.40;;;13.00;99.90;;;;;;5057583;28;20452;-70
2022/05/05 01:59:55;;;;;;;1.53;1.43;;;13.00;99.90;;;;;;5055202;28;20225;-69
2022/05/05 02:02:44;;;;;;;0.40;0.40;;;12.90;99.90;;;;;;5051256;28;20516;-69
2022/05/05 02:05:32;;;;;;;0.40;0.40;;;12.90;99.90;;;;;;5058086;28;20432;-70
2022/05/05 02:08:21;;;;;;;0.50;0.50;;;12.90;99.90;;;;;;5058422;28;20202;-69
2022/05/05 02:11:09;;;;;;;0.40;0.40;;;12.90;99.90;;;;;;5056835;28;20260;-70
2022/05/05 02:13:58;;;;;;;0.90;0.67;;;12.80;99.90;;;;;;5055219;28;20290;-69
2022/05/05 02:16:46;;;;;;;0.40;0.40;;;12.80;99.90;;;;;;5055158;28;20433;-69
2022/05/05 02:19:34;;;;;;;0.40;0.40;;;12.90;99.90;;;;;;5055851;28;20468;-70
2022/05/05 02:22:22;;;;;;;0.40;0.40;;;12.80;99.90;;;;;;5054633;28;20421;-69
2022/05/05 02:25:10;;;;;;;0.40;0.40;;;12.80;99.90;;;;;;5053144;28;20448;-69
2022/05/05 02:27:58;;;;;;;0.40;0.40;;;12.90;99.90;;;;;;5051029;28;20226;-69
2022/05/05 02:30:47;;;;;;;0.40;0.40;;;12.80;99.90;;;;;;5049229;28;20441;-69
2022/05/05 02:33:36;;;;;;;0.40;0.40;;;12.90;99.90;;;;;;5039705;28;20417;-69
2022/05/05 02:39:29;;;;;;;0.40;0.40;;;12.90;99.90;;;;;;5038266;28;20468;-68
2022/05/05 02:42:18;;;;;;;0.40;0.40;;;13.00;99.90;;;;;;5038491;28;20456;-69
2022/05/05 02:45:07;;;;;;;0.40;0.40;;;12.70;99.90;;;;;;5053226;28;20425;-69
2022/05/05 02:47:56;;;;;;;0.40;0.40;;;12.90;99.90;;;;;;5054136;28;20429;-69
2022/05/05 02:50:44;;;;;;;0.40;0.40;;;12.90;99.90;;;;;;5053806;28;20469;-69
2022/05/05 02:56:38;;;;;;;0.40;0.40;;;12.90;99.90;;;;;;5053704;28;20686;-69
2022/05/05 02:59:26;;;;;;;0.90;0.90;;;12.90;99.90;;;;;;5055034;28;20484;-69
2022/05/05 03:02:14;;;;;;;0.93;0.93;;;12.70;99.90;;;;;;5054723;28;20228;-69
2022/05/05 03:05:05;;;;;;;0.40;0.40;;;12.80;99.90;;;;;;5054745;28;20456;-70
2022/05/05 03:07:53;;;;;;;0.40;0.40;;;12.60;99.90;;;;;;5045326;28;20452;-69
2022/05/05 03:10:41;;;;;;;0.40;0.40;;;12.60;99.90;;;;;;5040249;28;20441;-69
2022/05/05 03:13:29;;;;;;;0.40;0.40;;;12.50;99.90;;;;;;5036911;28;20429;-69
2022/05/05 03:16:17;;;;;;;0.40;0.40;;;12.60;99.90;;;;;;5036300;28;20470;-69
2022/05/05 03:19:05;;;;;;;0.40;0.40;;;12.60;99.90;;;;;;5035140;28;20425;-69
2022/05/05 03:21:55;;;;;;;0.40;0.40;;;12.70;99.90;;;;;;5050609;23;20587;-73
2022/05/05 03:24:43;;;;;;;0.50;0.50;;;12.70;99.90;;;;;;5035971;28;20952;-71
2022/05/05 03:27:31;;;;;;;0.60;0.60;;;12.90;99.90;;;;;;5037052;28;20492;-70
2022/05/05 03:30:19;;;;;;;0.50;0.50;;;12.70;99.90;;;;;;5033934;28;20453;-72
2022/05/05 03:33:07;;;;;;;0.40;0.40;;;12.60;99.90;;;;;;5016510;28;20946;-71
2022/05/05 03:35:55;;;;;;;0.50;0.50;;;12.50;99.90;;;;;;5016217;28;20486;-72
2022/05/05 03:38:45;;;;;;;0.87;0.87;;;12.50;99.90;;;;;;5016427;28;20431;-72
2022/05/05 03:41:33;;;;;;;0.60;0.60;;;12.30;99.90;;;;;;5016166;28;20449;-72
2022/05/05 03:44:21;;;;;;;0.60;0.60;;;12.20;99.90;;;;;;5016934;28;20430;-72
2022/05/05 03:47:09;;;;;;;0.63;0.50;;;12.00;99.90;;;;;;5015669;28;20429;-73
2022/05/05 03:49:57;;;;;;;0.60;0.60;;;12.10;99.90;;;;;;5016445;28;20477;-72
2022/05/05 03:52:45;;;;;;;0.40;0.40;;;12.20;99.90;;;;;;5016061;28;20433;-72
2022/05/05 03:55:35;;;;;;;0.43;0.43;;;12.10;99.90;;;;;;5016065;28;20509;-72
2022/05/05 03:58:23;;;;;;;0.40;0.40;;;12.30;99.90;;;;;;5017194;28;20426;-71
2022/05/05 04:01:11;;;;;;;2.97;2.77;;;12.10;99.90;;;;;;5016597;28;20478;-73
2022/05/05 04:03:59;;;;;;;0.63;0.63;;;12.20;99.90;;;;;;5015554;28;20430;-72
2022/05/05 04:06:47;;;;;;;0.47;0.47;;;12.10;99.90;;;;;;5015692;28;20443;-72
2022/05/05 04:09:35;;;;;;;1.27;1.07;;;12.10;99.90;;;;;;5015398;28;20474;-73
2022/05/05 04:12:25;;;;;;;1.30;1.20;;;12.00;99.90;;;;;;5015866;28;20442;-71
2022/05/05 04:15:13;;;;;;;0.50;0.50;;;12.00;99.90;;;;;;5016537;28;20429;-73
2022/05/05 04:18:01;;;;;;;0.50;0.50;;;11.90;99.90;;;;;;5016077;28;20428;-73
2022/05/05 04:20:49;;;;;;;1.13;0.83;;;11.90;99.90;;;;;;5016061;28;20919;-71
2022/05/05 04:23:37;;;;;;;3.67;3.43;;;12.00;99.90;;;;;;5015731;28;21008;-73
2022/05/05 04:26:29;;;;;;;0.50;0.50;;;11.90;99.90;;;;;;5016050;28;20422;-71
2022/05/05 04:29:20;;;;;;;0.70;0.70;;;12.00;99.90;;;;;;5016810;28;20422;-71
2022/05/05 04:32:11;;;;;;;0.40;0.40;;;12.00;99.90;;;;;;5014427;28;20449;-71
2022/05/05 04:35:00;;;;;;;2.30;0.83;;;12.20;99.90;;;;;;5015772;28;20561;-71
2022/05/05 04:37:49;;;;;;;0.70;0.50;;;12.00;99.90;;;;;;5015791;28;20430;-71
2022/05/05 04:40:37;;;;;;;0.60;0.60;;;12.00;99.90;;;;;;5015269;28;20497;-72
2022/05/05 04:43:25;;;;;;;0.47;0.47;;;12.20;99.90;;;;;;5014753;28;20846;-71
2022/05/05 04:46:14;;;;;;;0.47;0.47;;;12.10;99.90;;;;;;5015033;28;20434;-71
2022/05/05 04:49:03;;;;;;;0.40;0.40;;;12.10;99.90;;;;;;5015502;28;20430;-71
2022/05/05 04:51:51;;;;;;;0.40;0.40;;;12.20;99.90;;;;;;5015391;28;20516;-71
2022/05/05 04:54:39;;;;;;;3.13;1.67;;;12.20;99.90;;;;;;5014409;28;20462;-71
2022/05/05 04:57:27;;;;;;;0.40;0.40;;;12.20;99.90;;;;;;5014367;28;20550;-71
2022/05/05 05:00:16;;;;;;;0.50;0.50;;;12.30;99.90;;;;;;5015409;28;20469;-72
2022/05/05 05:03:32;;;;;;;0.40;0.40;;;12.20;99.90;;;;;;5014499;28;20429;-70
2022/05/05 05:06:14;;;;;;;0.40;0.40;;;12.30;99.90;;;;;;5020563;28;20462;-72
2022/05/05 05:09:02;;;;;;;1.23;1.13;;;12.40;99.90;;;;;;5015129;28;20518;-74
2022/05/05 05:11:50;;;;;;;0.60;0.60;;;12.50;99.90;;;;;;5013389;28;20540;-72
2022/05/05 05:14:38;;;;;;;0.47;0.47;;;12.60;99.90;;;;;;5013437;28;20437;-72
2022/05/05 05:17:26;;;;;;;0.40;0.40;;;12.70;99.90;;;;;;5014390;28;20449;-72
2022/05/05 05:20:16;;;;;;;0.40;0.40;;;12.80;99.90;;;;;;5014729;28;20465;-71
2022/05/05 05:23:04;;;;;;;2.60;2.50;;;12.90;99.90;;;;;;5014084;28;20426;-73
2022/05/05 05:25:52;;;;;;;1.67;0.83;;;12.90;99.90;;;;;;5014433;28;20920;-71
2022/05/05 05:28:40;;;;;;;0.60;0.60;;;13.00;99.90;;;;;;5014104;28;20487;-72
2022/05/05 05:31:28;;;;;;;0.80;0.80;;;13.10;99.90;;;;;;5013333;28;20526;-76
2022/05/05 05:34:16;;;;;;;0.47;0.47;;;13.20;99.90;;;;;;5014678;28;20445;-72
2022/05/05 05:37:06;;;;;;;1.00;1.00;;;13.40;99.90;;;;;;5012531;28;20424;-76
2022/05/05 05:39:54;;;;;;;1.60;1.50;;;13.40;99.90;;;;;;5014884;28;20529;-69
2022/05/05 05:42:42;;;;;;;0.80;0.60;;;13.30;99.90;;;;;;5027707;28;20436;-70
2022/05/05 05:45:31;;;;;;;0.40;0.40;;;13.20;99.90;;;;;;5013936;28;20521;-69
2022/05/05 05:48:19;;;;;;;2.30;1.33;;;13.40;99.90;;;;;;5012300;28;20280;-70
2022/05/05 05:51:07;;;;;;;1.50;1.10;;;13.30;99.90;;;;;;5014019;28;21144;-68
2022/05/05 05:53:56;;;;;;;0.83;0.83;;;13.40;99.90;;;;;;5014422;28;20253;-70
2022/05/05 05:56:45;;;;;;;0.50;0.50;;;13.50;99.90;;;;;;5014142;28;20430;-69
2022/05/05 05:59:33;;;;;;;0.90;0.83;;;13.50;99.90;;;;;;5012920;28;20433;-70
2022/05/05 06:05:27;;;;;;;1.03;1.03;;;13.60;99.90;;;;;;5018655;28;20432;-69
2022/05/05 06:08:16;;;;;;;0.50;0.50;;;13.60;99.90;;;;;;5011036;28;20427;-68
2022/05/05 06:11:05;;;;;;;0.60;0.60;;;13.00;99.90;;;;;;4994157;28;21162;-69
2022/05/05 06:13:53;;;;;;;2.30;2.20;;;13.80;99.90;;;;;;4995264;28;20454;-68
2022/05/05 06:16:41;;;;;;;0.40;0.40;;;13.70;99.90;;;;;;4995408;28;20935;-69
2022/05/05 06:19:30;;;;;;;0.40;0.40;;;13.80;99.90;;;;;;4998107;28;20206;-68
2022/05/05 06:22:18;;;;;;;2.00;1.27;;;13.70;99.90;;;;;;5013680;28;20506;-69
2022/05/05 06:25:07;;;;;;;0.40;0.40;;;13.80;99.90;;;;;;5016983;28;20437;-68
2022/05/05 06:27:58;;;;;;;0.50;0.50;;;13.90;99.90;;;;;;5019572;28;20421;-69
2022/05/05 06:30:47;;;;;;;0.50;0.50;;;14.10;99.90;;;;;;5018643;28;20234;-70
2022/05/05 06:33:35;;;;;;;2.10;1.20;;;14.20;99.90;;;;;;5018894;28;20426;-68
2022/05/05 06:36:24;;;;;;;0.40;0.40;;;14.40;99.90;;;;;;5018068;28;20207;-68
2022/05/05 06:39:12;;;;;;;0.40;0.40;;;14.30;99.90;;;;;;5019096;28;20206;-69
2022/05/05 06:42:01;;;;;;;0.40;0.40;;;14.30;99.90;;;;;;5018354;28;20230;-69
2022/05/05 06:44:51;;;;;;;0.40;0.40;;;14.20;99.90;;;;;;5017610;28;20234;-69
2022/05/05 06:47:40;;;;;;;0.40;0.40;;;14.50;99.90;;;;;;5016000;28;20854;-68
2022/05/05 06:50:28;;;;;;;0.60;0.60;;;14.40;99.90;;;;;;5005372;28;20262;-67
2022/05/05 06:53:17;;;;;;;0.40;0.40;;;14.40;99.90;;;;;;5016124;28;20206;-68
2022/05/05 06:56:05;;;;;;;1.80;1.70;;;14.50;99.90;;;;;;5017274;28;20703;-69
2022/05/05 06:58:53;;;;;;;0.50;0.50;;;14.50;99.90;;;;;;5020522;28;20862;-68
2022/05/05 07:01:57;;;;;;;0.40;0.40;;;14.40;99.90;;;;;;5027294;28;20396;-68
2022/05/05 07:07:51;;;;;;;1.37;1.27;;;14.80;99.90;;;;;;5037324;28;20204;-68
2022/05/05 07:10:54;;;;;;;0.83;0.83;;;14.80;99.90;;;;;;5037370;28;20276;-69
2022/05/05 07:13:42;;;;;;;1.37;1.13;;;14.90;99.90;;;;;;5036723;28;20201;-68
2022/05/05 07:16:30;;;;;;;0.40;0.40;;;15.20;99.90;;;;;;5032360;28;20191;-68
2022/05/05 07:19:20;;;;;;;0.50;0.50;;;15.10;99.90;;;;;;5024265;28;20774;-68
2022/05/05 07:22:08;;;;;;;0.45;0.45;;;14.90;99.90;;;;;;5026810;28;20708;-68
2022/05/05 07:24:56;;;;;;;0.50;0.50;;;14.90;99.90;;;;;;5017440;28;20206;-68
2022/05/05 07:27:45;;;;;;;1.17;1.08;;;14.80;99.90;;;;;;5016521;28;20206;-68
2022/05/05 07:30:34;;;;;;;1.47;1.37;;;14.60;99.90;;;;;;5015811;28;20687;-68
2022/05/05 07:33:25;;;;;;;0.40;0.40;;;14.30;99.90;;;;;;5016700;28;20663;-67
2022/05/05 07:36:14;;;;;;;0.40;0.40;;;14.10;99.90;;;;;;5015136;28;20454;-66
2022/05/05 07:39:02;;;;;;;0.50;0.50;;;13.90;99.90;;;;;;5015940;28;20218;-67
2022/05/05 07:41:51;;;;;;;1.40;0.63;;;13.80;99.90;;;;;;5014807;28;20477;-67
2022/05/05 07:44:39;;;;;;;1.53;1.43;;;13.80;99.90;;;;;;5015981;28;20987;-68
2022/05/05 07:47:27;;;;;;;0.77;0.77;;;13.80;99.90;;;;;;5017054;28;20218;-67
2022/05/05 07:50:16;;;;;;;8.67;1.33;;;13.80;99.90;;;;;;5034252;28;20209;-69
2022/05/05 07:53:06;;;;;;;0.50;0.50;;;13.80;99.90;;;;;;5016041;28;20484;-66
2022/05/05 07:55:54;;;;;;;1.67;1.57;;;13.70;99.90;;;;;;5015689;28;20214;-68
2022/05/05 07:58:42;;;;;;;0.40;0.40;;;13.80;99.90;;;;;;5015619;28;20946;-67
2022/05/05 08:01:30;;;;;;;0.60;0.60;;;13.90;99.90;;;;;;5012837;28;20226;-68
2022/05/05 08:04:19;;;;;;;0.60;0.60;;;13.90;99.90;;;;;;5019326;28;20449;-67
2022/05/05 08:07:07;;;;;;;0.70;0.70;;;14.00;99.90;;;;;;5013844;28;20286;-66
2022/05/05 08:09:57;;;;;;;0.50;0.50;;;14.10;99.90;;;;;;4995894;28;20242;-67
2022/05/05 08:12:49;;;;;;;0.40;0.40;;;14.20;99.90;;;;;;5009403;28;20247;-66
2022/05/05 08:15:37;;;;;;;0.60;0.60;;;14.20;99.90;;;;;;5014719;28;20533;-66
2022/05/05 08:18:25;;;;;;;0.40;0.40;;;14.30;99.90;;;;;;5017073;28;20672;-66
2022/05/05 08:21:13;;;;;;;0.70;0.70;;;14.40;99.90;;;;;;5013742;28;20991;-67
2022/05/05 08:30:24;;;;;;;0.80;0.80;;;14.50;99.90;;;;;;5015652;28;20219;-66
2022/05/05 08:33:12;;;;;;;3.43;1.77;;;14.60;99.90;;;;;;5014848;28;20199;-66
2022/05/05 08:36:00;;;;;;;0.50;0.50;;;14.70;99.90;;;;;;5017797;28;20195;-66
2022/05/05 08:38:49;;;;;;;0.60;0.60;;;14.80;99.90;;;;;;5018965;28;20432;-68
2022/05/05 08:41:39;;;;;;;0.50;0.50;;;14.90;99.90;;;;;;4995569;28;20227;-67
2022/05/05 08:44:29;;;;;;;0.40;0.40;;;14.90;99.90;;;;;;5012223;28;20253;-66
2022/05/05 08:47:18;;;;;;;0.60;0.60;;;14.90;99.90;;;;;;5014101;28;20632;-67
2022/05/05 08:50:09;;;;;;;0.50;0.50;;;15.00;99.90;;;;;;4992769;28;20202;-67
2022/05/05 08:52:58;;;;;;;0.63;0.63;;;15.10;99.90;;;;;;5014144;28;20276;-67
2022/05/05 08:55:46;;;;;;;0.80;0.60;;;15.20;99.90;;;;;;4996380;28;20260;-66
2022/05/05 08:58:34;;;;;;;0.50;0.50;;;15.20;99.90;;;;;;5004616;28;20438;-66
2022/05/05 09:01:26;;;;;;;0.60;0.60;;;15.30;99.90;;;;;;5008050;28;20228;-67
2022/05/05 09:04:14;;;;;;;1.37;1.27;;;15.40;99.90;;;;;;5018783;28;20208;-65
2022/05/05 09:07:03;;;;;;;0.40;0.40;;;15.40;99.90;;;;;;5023383;28;20194;-66
2022/05/05 09:09:51;;;;;;;1.93;1.13;;;15.50;99.90;;;;;;5013852;28;20198;-67
2022/05/05 09:12:40;;;;;;;0.67;0.67;;;15.50;99.90;;;;;;5013770;28;20205;-66
2022/05/05 09:15:33;;;;;;;0.90;0.80;;;15.50;99.90;;;;;;5014874;28;20288;-67
2022/05/05 09:18:25;;;;;;;1.90;1.43;;;15.60;99.90;;;;;;4999035;28;20226;-65
2022/05/05 09:21:15;;;;;;;0.40;0.40;;;15.70;99.90;;;;;;5002716;28;20228;-66
2022/05/05 09:27:18;;;;;;;0.60;0.60;;;15.90;99.90;;;;;;5014448;28;20217;-66
2022/05/05 09:30:12;;;;;;;1.40;1.30;;;16.00;99.90;;;;;;5014030;28;20198;-65
2022/05/05 09:33:00;;;;;;;0.60;0.60;;;16.10;99.90;;;;;;5014107;28;20199;-65
2022/05/05 09:35:56;;;;;;;0.40;0.40;;;16.10;99.90;;;;;;5015096;28;20199;-66
2022/05/05 09:38:51;;;;;;;7.20;2.15;;;16.10;99.90;;;;;;5013727;28;20293;-66
2022/05/05 09:41:44;;;;;;;0.50;0.50;;;16.10;99.90;;;;;;4993794;28;20234;-66
2022/05/05 09:44:44;;;;;;;0.50;0.50;;;16.20;99.90;;;;;;5002479;28;20218;-66
2022/05/05 09:47:33;;;;;;;0.40;0.40;;;16.30;99.90;;;;;;5013780;28;20191;-66
2022/05/05 09:50:23;;;;;;;0.40;0.40;;;16.50;99.90;;;;;;5013537;28;20281;-67
2022/05/05 09:59:30;;;;;;;0.40;0.40;;;16.50;99.90;;;;;;5021876;28;20198;-74
2022/05/05 10:05:38;;;;;;;1.35;1.00;;;16.80;99.90;;;;;;5016105;28;20210;-72
2022/05/05 10:08:36;;;;;;;0.40;0.40;;;16.60;99.90;;;;;;5016749;28;20214;-70
2022/05/05 10:11:25;;;;;;;1.25;0.90;;;16.50;99.90;;;;;;5017626;28;20218;-69
2022/05/05 10:14:16;;;;;;;4.50;1.00;;;16.70;99.90;;;;;;5017477;28;20191;-70
2022/05/05 10:17:05;;;;;;;0.40;0.40;;;16.60;99.90;;;;;;5016059;28;20715;-71
2022/05/05 10:19:53;;;;;;;0.40;0.40;;;16.60;99.90;;;;;;5010710;28;20214;-71
2022/05/05 10:22:55;;;;;;;0.60;0.60;;;16.80;99.90;;;;;;5008660;28;20219;-71
2022/05/05 10:25:52;;;;;;;0.57;0.57;;;16.90;99.90;;;;;;5033079;28;20213;-72
2022/05/05 10:28:43;;;;;;;0.40;0.40;;;17.00;99.90;;;;;;5036452;28;20255;-70
2022/05/05 10:31:46;;;;;;;0.93;0.90;;;17.10;99.90;;;;;;5035908;28;20218;-69
2022/05/05 10:34:34;;;;;;;0.40;0.40;;;17.30;99.90;;;;;;5026330;28;20202;-73
2022/05/05 10:37:33;;;;;;;0.55;0.47;;;17.40;99.90;;;;;;5013735;28;20211;-72
2022/05/05 10:40:23;;;;;;;0.60;0.60;;;17.60;99.90;;;;;;5004646;28;20225;-71
2022/05/05 10:43:13;;;;;;;0.60;0.60;;;17.70;99.90;;;;;;4996262;28;20622;-73
2022/05/05 10:46:01;;;;;;;3.80;0.60;;;17.60;99.90;;;;;;4996686;28;20239;-74
2022/05/05 10:48:49;;;;;;;2.83;0.93;;;17.50;99.90;;;;;;5002541;28;20214;-71
2022/05/05 10:52:12;;;;;;;0.40;0.40;;;17.50;99.90;;;;;;5006518;28;20306;-73
2022/05/05 10:55:22;;;;;;;2.13;0.85;;;17.50;99.90;;;;;;4995399;28;20699;-73
2022/05/05 10:59:13;;;;;;;0.50;0.50;;;17.90;99.90;;;;;;5003196;28;20281;-73
2022/05/05 11:02:04;;;;;;;0.77;0.77;;;18.20;99.90;;;;;;5011038;28;20653;-74
2022/05/05 11:05:26;;;;;;;0.60;0.50;;;18.30;99.90;;;;;;4997984;28;20654;-75
2022/05/05 11:08:35;;;;;;;1.33;1.25;;;18.00;99.90;;;;;;5015888;28;20198;-70
2022/05/05 11:11:41;;;;;;;2.50;2.33;;;17.90;99.90;;;;;;4996160;28;20775;-71
2022/05/05 11:24:27;;;;;;;0.60;0.60;;;19.10;99.90;;;;;;5008578;28;20266;-74
2022/05/05 11:27:17;;;;;;;1.13;0.88;;;19.50;99.90;;;;;;5013160;28;20207;-73
2022/05/05 11:30:06;;;;;;;1.17;1.08;;;19.60;99.90;;;;;;5004802;28;20313;-72
2022/05/05 11:33:00;;;;;;;0.80;0.80;;;19.50;99.90;;;;;;5009993;28;20675;-71
2022/05/05 11:36:02;;;;;;;0.50;0.50;;;19.40;99.90;;;;;;5005283;28;20210;-69
2022/05/05 11:38:51;;;;;;;0.40;0.40;;;19.60;99.90;;;;;;5011204;28;20664;-69
2022/05/05 11:41:39;;;;;;;5.00;2.13;;;20.00;99.90;;;;;;4993390;28;20274;-72
2022/05/05 11:44:27;;;;;;;1.08;0.85;;;20.10;99.90;;;;;;5010550;28;20218;-69
2022/05/05 11:47:17;;;;;;;0.40;0.40;;;20.10;99.90;;;;;;5010014;28;20203;-71
2022/05/05 11:50:11;;;;;;;0.50;0.50;;;20.10;99.90;;;;;;5006404;28;20333;-66
2022/05/05 11:52:59;;;;;;;0.40;0.40;;;20.40;99.90;;;;;;5006121;28;20265;-73
2022/05/05 11:55:53;;;;;;;0.40;0.40;;;21.20;99.90;;;;;;5010886;28;20308;-73
2022/05/05 12:01:46;;;;;;;1.52;1.02;;;21.40;98.90;;;;;;5013566;28;20253;-70
2022/05/05 12:04:38;;;;;;;2.25;1.50;;;20.80;98.80;;;;;;5012580;28;20262;-72
2022/05/05 12:07:28;;;;;;;1.42;1.40;;;20.00;98.90;;;;;;5010208;28;20211;-69
2022/05/05 12:10:17;;;;;;;0.40;0.40;;;19.60;99.00;;;;;;5013152;28;20217;-72
2022/05/05 12:13:06;;;;;;;0.60;0.60;;;19.80;99.10;;;;;;5010633;28;20206;-71
2022/05/05 12:15:55;;;;;;;0.40;0.40;;;20.10;99.30;;;;;;5013250;28;20341;-71
2022/05/05 12:18:50;;;;;;;1.48;1.20;;;20.50;98.80;;;;;;5011707;28;20290;-71
2022/05/05 12:21:59;;;;;;;0.77;0.77;;;21.00;97.50;;;;;;5001340;28;20231;-75
2022/05/05 12:24:49;;;;;;;0.85;0.75;;;21.20;97.40;;;;;;5009862;28;20226;-73
2022/05/05 12:27:37;;;;;;;1.17;1.08;;;21.10;96.20;;;;;;5011801;28;20285;-70
2022/05/05 12:30:31;;;;;;;1.35;0.80;;;20.80;96.60;;;;;;5013431;28;20313;-73
2022/05/05 12:33:35;;;;;;;0.50;0.50;;;20.50;96.10;;;;;;5010550;28;20699;-71
2022/05/05 12:36:28;;;;;;;0.40;0.40;;;20.40;96.40;;;;;;5019531;28;20727;-69
2022/05/05 12:39:20;;;;;;;2.78;1.38;;;20.20;96.00;;;;;;5011775;28;20207;-72
2022/05/05 12:42:09;;;;;;;0.40;0.40;;;20.40;95.40;;;;;;4998200;28;20246;-72
2022/05/05 12:45:00;;;;;;;0.40;0.40;;;20.30;94.80;;;;;;5010851;28;20301;-71
2022/05/05 12:47:49;;;;;;;1.27;0.93;;;20.30;94.80;;;;;;5013945;28;20202;-72
2022/05/05 12:50:42;;;;;;;0.40;0.40;;;20.30;94.70;;;;;;4999054;28;20699;-71
2022/05/05 12:59:47;;;;;;;1.15;1.15;;;20.50;94.50;;;;;;5011026;28;20205;-69
2022/05/05 13:02:36;;;;;;;0.50;0.47;;;20.30;93.80;;;;;;5006373;28;20279;-75
2022/05/05 13:05:25;;;;;;;0.43;0.43;;;20.30;93.90;;;;;;5001108;28;20297;-72
2022/05/05 13:08:13;;;;;;;0.40;0.40;;;20.40;94.00;;;;;;5002459;28;20737;-71
2022/05/05 13:11:01;;;;;;;1.42;0.60;;;20.50;93.90;;;;;;5004388;28;20218;-70
2022/05/05 13:13:50;;;;;;;0.60;0.60;;;20.50;93.90;;;;;;4996898;28;20195;-70
2022/05/05 13:16:46;;;;;;;0.60;0.60;;;20.50;93.60;;;;;;5005341;28;20211;-74
2022/05/05 13:19:34;;;;;;;0.93;0.90;;;20.90;93.30;;;;;;5013196;28;20209;-69
2022/05/05 13:22:22;;;;;;;0.45;0.45;;;20.70;92.40;;;;;;5010819;28;20242;-72
2022/05/05 13:25:10;;;;;;;0.65;0.65;;;20.50;92.70;;;;;;5010281;28;20310;-72
2022/05/05 13:28:00;;;;;;;0.40;0.40;;;20.50;93.00;;;;;;5011509;28;20696;-71
2022/05/05 13:30:48;;;;;;;0.40;0.40;;;20.60;93.20;;;;;;5010087;28;20304;-69
2022/05/05 13:33:38;;;;;;;0.40;0.40;;;20.80;93.20;;;;;;5010264;28;20590;-72
2022/05/05 13:36:26;;;;;;;0.50;0.50;;;21.30;93.30;;;;;;5006756;28;20257;-69
2022/05/05 13:39:15;;;;;;;0.40;0.40;;;22.40;91.70;;;;;;4994028;28;20231;-67
2022/05/05 13:42:04;;;;;;;0.45;0.45;;;24.10;89.50;;;;;;4995247;28;20293;-70
2022/05/05 13:44:52;;;;;;;0.40;0.40;;;24.20;85.30;;;;;;5013523;28;20687;-69
2022/05/05 13:47:41;;;;;;;0.50;0.50;;;23.50;86.00;;;;;;5013229;28;20238;-70
2022/05/05 13:50:30;;;;;;;0.40;0.40;;;23.20;86.20;;;;;;5012246;28;20707;-69
2022/05/05 13:53:18;;;;;;;0.50;0.50;;;22.70;87.30;;;;;;5011817;28;20672;-74
2022/05/05 13:56:06;;;;;;;0.40;0.40;;;22.20;86.70;;;;;;4992475;28;20249;-74
2022/05/05 13:58:54;;;;;;;0.47;0.47;;;22.00;86.40;;;;;;5009987;28;20207;-69
2022/05/05 14:01:42;;;;;;;0.40;0.40;;;22.00;86.40;;;;;;5014394;28;20258;-69
2022/05/05 14:04:31;;;;;;;0.80;0.80;;;22.90;86.60;;;;;;5011444;28;20233;-69
2022/05/05 14:13:35;;;;;;;0.40;0.40;;;24.20;77.80;;;;;;5017758;28;20273;-69
2022/05/05 14:16:23;;;;;;;1.75;1.17;;;23.80;80.10;;;;;;5012942;28;20256;-68
2022/05/05 14:19:12;;;;;;;0.40;0.40;;;23.80;80.10;;;;;;5013077;28;20214;-69
2022/05/05 14:22:00;;;;;;;0.50;0.50;;;24.00;79.60;;;;;;5011971;28;20709;-68
2022/05/05 14:24:50;;;;;;;1.98;0.95;;;24.20;79.10;;;;;;5011309;28;20598;-69
2022/05/05 14:27:38;;;;;;;0.57;0.57;;;24.40;76.90;;;;;;5011739;28;20574;-70
2022/05/05 14:30:26;;;;;;;0.40;0.40;;;23.20;77.60;;;;;;5012948;28;20266;-70
2022/05/05 14:33:16;;;;;;;0.40;0.40;;;23.40;80.20;;;;;;5009555;28;20210;-69
2022/05/05 14:36:06;;;;;;;0.60;0.60;;;25.90;76.60;;;;;;5017983;28;20244;-69
2022/05/05 14:38:54;;;;;;;1.60;1.13;;;28.70;66.00;;;;;;4992395;28;20678;-69
2022/05/05 14:41:44;;;;;;;0.80;0.70;;;29.20;58.50;;;;;;4996039;28;20602;-69
2022/05/05 14:44:32;;;;;;;0.50;0.50;;;29.30;56.40;;;;;;4992431;28;20286;-69
2022/05/05 14:47:20;;;;;;;0.50;0.50;;;29.80;54.20;;;;;;4995576;28;20206;-69
2022/05/05 14:50:09;;;;;;;0.90;0.90;;;30.40;52.60;;;;;;4995985;28;20207;-68
2022/05/05 14:52:57;;;;;;;0.73;0.73;;;31.50;49.90;;;;;;4994752;28;20210;-69
2022/05/05 14:55:45;;;;;;;0.40;0.40;;;31.20;48.20;;;;;;4996307;28;20199;-69
2022/05/05 14:58:34;;;;;;;0.43;0.43;;;31.60;46.90;;;;;;4994674;28;20342;-69
2022/05/05 15:01:22;;;;;;;0.40;0.40;;;31.20;44.90;;;;;;4995638;28;20224;-69
2022/05/05 15:04:10;;;;;;;0.43;0.43;;;30.50;44.50;;;;;;4995122;28;20211;-69
2022/05/05 15:06:59;;;;;;;0.47;0.47;;;29.90;44.30;;;;;;4995708;28;20289;-69
2022/05/05 15:09:47;;;;;;;1.35;0.60;;;30.20;43.80;;;;;;4994972;28;20203;-69
2022/05/05 15:12:36;;;;;;;0.40;0.40;;;30.60;42.20;;;;;;4994987;28;20286;-69
2022/05/05 15:15:25;;;;;;;0.40;0.40;;;31.30;40.30;;;;;;4995517;28;20275;-72
2022/05/05 15:18:14;;;;;;;0.40;0.40;;;31.40;39.70;;;;;;4995665;28;20203;-69
2022/05/05 15:21:03;;;;;;;0.60;0.43;;;31.80;38.00;;;;;;4994483;28;20235;-69
2022/05/05 15:23:52;;;;;;;0.40;0.40;;;32.20;37.50;;;;;;4995718;28;20242;-69
2022/05/05 15:26:40;;;;;;;0.95;0.95;;;32.20;36.40;;;;;;4994528;28;20254;-70
2022/05/05 15:29:29;;;;;;;0.40;0.40;;;32.10;35.30;;;;;;4994232;28;20210;-70
2022/05/05 15:32:18;;;;;;;2.05;1.40;;;32.60;34.90;;;;;;4993715;28;20306;-70
2022/05/05 15:35:09;;;;;;;4.25;0.60;;;33.40;34.50;;;;;;4994393;28;20751;-69
2022/05/05 15:37:57;;;;;;;1.05;1.05;;;33.00;33.90;;;;;;4994771;28;20231;-69
2022/05/05 15:40:45;;;;;;;0.40;0.40;;;33.30;33.20;;;;;;4995518;28;20219;-69
2022/05/05 15:43:33;;;;;;;0.50;0.50;;;32.70;34.00;;;;;;4993389;28;20262;-69
2022/05/05 15:46:21;;;;;;;0.52;0.52;;;30.50;34.70;;;;;;4994190;28;20227;-69
2022/05/05 15:49:10;;;;;;;0.98;0.98;;;29.00;37.00;;;;;;4994078;28;20246;-69